Erquelinnes, Belgium
Current Conditions -  °F | °C
As of 10:20 AM on Monday 24 Nov 2014 (Local Time) from EBCI Reporting Station
Few Clouds Few Clouds  
Wind Chill: 44°   Ceiling: Unl
Heat Index: 46°   Visibility: 6mi
Dew Point: 43°   Wind: 5mph
Humidity: 87%   Direction: 10°N
Pressure: 30.27"   Gusts: NA
Location:  50.31°N, 4.11°E
Report Text: EBCI 240920Z 01004KT 9999 FEW015 08/06 Q1025
Loading
Personal Weather Stations






























Interactive Weather Map New forecast layout! Learn more

10-Day Weather Forecast

Advertisements
Track Severe Weather on mobile